createdAt,value
2022-08-09T00:01:52.683Z,360
2022-08-09T00:04:00.149Z,45
2022-08-09T00:07:48.906Z,45
2022-08-09T00:09:50.564Z,45
2022-08-09T00:13:53.415Z,45
2022-08-09T00:18:04.285Z,45
2022-08-09T00:19:57.334Z,45
2022-08-09T00:24:00.446Z,45
2022-08-09T00:28:04.231Z,360
2022-08-09T00:30:10.573Z,360
2022-08-09T00:34:10.825Z,360
2022-08-09T00:36:10.812Z,360
2022-08-09T00:40:16.894Z,360
2022-08-09T00:44:08.590Z,360
2022-08-09T00:44:20.570Z,360
2022-08-09T00:50:21.357Z,360
2022-08-09T00:52:28.282Z,360
2022-08-09T00:56:25.846Z,360
2022-08-09T00:58:27.740Z,360
2022-08-09T01:00:28.818Z,360
2022-08-09T01:02:30.657Z,360
2022-08-09T01:04:31.839Z,360
2022-08-09T01:08:36.912Z,360
2022-08-09T01:10:36.844Z,360
2022-08-09T01:12:37.964Z,360
2022-08-09T01:16:47.152Z,360
2022-08-09T01:18:42.345Z,360
2022-08-09T01:20:43.742Z,360
2022-08-09T01:22:45.625Z,360
2022-08-09T01:28:50.948Z,360
2022-08-09T01:32:54.059Z,360
2022-08-09T01:34:55.932Z,360
2022-08-09T01:38:58.508Z,360
2022-08-09T01:41:02.873Z,360
2022-08-09T01:43:01.116Z,360
2022-08-09T01:47:03.851Z,360
2022-08-09T01:51:06.434Z,360
2022-08-09T01:53:19.046Z,360
2022-08-09T01:55:09.052Z,360
2022-08-09T01:59:11.599Z,360
2022-08-09T02:01:18.243Z,360
2022-08-09T02:03:14.192Z,360
2022-08-09T02:05:16.111Z,360
2022-08-09T02:07:18.107Z,360
2022-08-09T02:09:18.046Z,360
2022-08-09T02:11:19.616Z,360
2022-08-09T02:15:21.745Z,360
2022-08-09T02:17:39.800Z,360
2022-08-09T02:21:26.658Z,360
2022-08-09T02:23:27.694Z,360
2022-08-09T02:25:29.640Z,360
2022-08-09T02:31:34.145Z,360
2022-08-09T02:33:37.562Z,360
2022-08-09T02:35:46.294Z,360
2022-08-09T02:37:36.854Z,360
2022-08-09T02:39:39.971Z,360
2022-08-09T02:43:42.663Z,360
2022-08-09T02:45:42.673Z,360
2022-08-09T02:47:46.562Z,360
2022-08-09T02:53:52.872Z,360
2022-08-09T02:55:57.370Z,360
2022-08-09T02:58:00.804Z,360
2022-08-09T03:00:11.593Z,360
2022-08-09T03:04:13.704Z,360
2022-08-09T03:05:58.359Z,360
2022-08-09T03:07:59.589Z,360
2022-08-09T03:10:01.210Z,360
2022-08-09T03:14:04.673Z,360
2022-08-09T03:16:07.228Z,360
2022-08-09T03:18:09.654Z,360
2022-08-09T03:20:11.382Z,360
2022-08-09T03:24:11.720Z,360
2022-08-09T03:26:13.115Z,360
2022-08-09T03:30:29.416Z,360
2022-08-09T03:32:17.528Z,360
2022-08-09T03:34:18.743Z,360
2022-08-09T03:36:20.568Z,360
2022-08-09T03:38:29.087Z,360
2022-08-09T03:40:23.464Z,360
2022-08-09T03:42:26.343Z,360
2022-08-09T03:44:27.778Z,360
2022-08-09T03:48:29.382Z,360
2022-08-09T03:50:31.748Z,360
2022-08-09T03:52:31.717Z,360
2022-08-09T03:54:34.305Z,360
2022-08-09T03:56:34.504Z,360
2022-08-09T03:58:36.168Z,360
2022-08-09T04:02:39.525Z,360
2022-08-09T04:06:43.982Z,360
2022-08-09T04:08:46.533Z,360
2022-08-09T04:12:47.640Z,360
2022-08-09T04:14:54.317Z,360
2022-08-09T04:16:49.915Z,360
2022-08-09T04:20:52.511Z,360
2022-08-09T04:22:54.144Z,360
2022-08-09T04:26:56.812Z,360
2022-08-09T04:28:59.846Z,360
2022-08-09T04:33:00.260Z,360
2022-08-09T04:35:01.784Z,360
2022-08-09T04:37:03.401Z,360
2022-08-09T04:39:04.970Z,360
2022-08-09T04:41:05.878Z,360
2022-08-09T04:43:07.450Z,360
2022-08-09T04:45:08.600Z,360
2022-08-09T04:47:10.308Z,360
2022-08-09T04:47:59.620Z,360
2022-08-09T04:49:55.949Z,360
2022-08-09T04:51:57.270Z,360
2022-08-09T04:53:58.879Z,360
2022-08-09T04:56:00.145Z,360
2022-08-09T04:58:09.370Z,360
2022-08-09T05:00:03.456Z,45
2022-08-09T05:02:04.662Z,45
2022-08-09T05:04:06.454Z,45
2022-08-09T05:08:08.744Z,45
2022-08-09T05:10:09.652Z,45
2022-08-09T05:12:11.138Z,45
2022-08-09T05:14:11.699Z,45
2022-08-09T05:16:14.997Z,45
2022-08-09T05:18:40.012Z,45
2022-08-09T05:22:28.379Z,45
2022-08-09T05:24:20.251Z,45
2022-08-09T05:26:26.527Z,45
2022-08-09T05:28:23.236Z,45
2022-08-09T05:30:25.091Z,45
2022-08-09T05:32:29.949Z,46
2022-08-09T05:34:30.240Z,46
2022-08-09T05:36:30.250Z,46
2022-08-09T05:38:31.200Z,46
2022-08-09T05:40:32.619Z,46
2022-08-09T05:44:35.773Z,46
2022-08-09T05:46:36.658Z,46
2022-08-09T05:48:38.011Z,360
2022-08-09T05:54:41.512Z,30
2022-08-09T05:56:54.744Z,30
2022-08-09T05:58:44.620Z,351
2022-08-09T06:00:46.306Z,351
2022-08-09T06:04:48.971Z,351
2022-08-09T06:06:51.771Z,351
2022-08-09T06:08:52.625Z,351
2022-08-09T06:10:53.447Z,351
2022-08-09T06:14:58.585Z,350
2022-08-09T06:16:57.486Z,350
2022-08-09T06:20:59.695Z,350
2022-08-09T06:25:01.705Z,350
2022-08-09T06:27:02.519Z,350
2022-08-09T06:31:04.466Z,350
2022-08-09T06:35:07.096Z,350
2022-08-09T06:37:08.923Z,350
2022-08-09T06:39:11.507Z,350
2022-08-09T06:41:12.474Z,350
2022-08-09T06:43:12.349Z,350
2022-08-09T06:47:15.123Z,349
2022-08-09T06:49:22.603Z,346
2022-08-09T06:51:17.644Z,247
2022-08-09T06:53:18.613Z,247
2022-08-09T06:55:22.338Z,194
2022-08-09T06:57:25.958Z,210
2022-08-09T07:00:47.868Z,210
2022-08-09T07:01:27.496Z,216
2022-08-09T07:03:26.880Z,216
2022-08-09T07:05:54.023Z,169
2022-08-09T07:11:34.399Z,224
2022-08-09T07:13:44.793Z,238
2022-08-09T07:15:53.418Z,238
2022-08-09T07:17:39.601Z,238
2022-08-09T07:19:36.381Z,237
2022-08-09T07:21:37.923Z,237
2022-08-09T07:23:46.824Z,237
2022-08-09T07:25:42.769Z,239
2022-08-09T07:29:44.295Z,176
2022-08-09T07:31:48.029Z,176
2022-08-09T07:33:52.448Z,176
2022-08-09T07:35:53.728Z,176
2022-08-09T07:37:50.706Z,137
2022-08-09T07:39:52.115Z,164
2022-08-09T07:41:53.790Z,89
2022-08-09T07:45:56.302Z,53
2022-08-09T07:48:01.026Z,131
2022-08-09T07:50:05.698Z,129
2022-08-09T07:52:03.898Z,132
2022-08-09T07:56:06.241Z,119
2022-08-09T07:58:04.018Z,117
2022-08-09T08:00:08.838Z,89
2022-08-09T08:02:07.351Z,3
2022-08-09T08:06:14.302Z,138
2022-08-09T08:08:44.949Z,128
2022-08-09T08:10:13.088Z,75
2022-08-09T08:12:27.514Z,154
2022-08-09T08:18:17.717Z,95
2022-08-09T08:20:19.433Z,119
2022-08-09T08:22:20.433Z,150
2022-08-09T08:28:26.276Z,59
2022-08-09T08:30:24.526Z,100
2022-08-09T08:32:29.309Z,85
2022-08-09T08:34:27.364Z,20
2022-08-09T08:38:30.451Z,124
2022-08-09T08:40:31.993Z,82
2022-08-09T08:44:33.860Z,144
2022-08-09T08:46:41.331Z,74
2022-08-09T08:48:36.807Z,131
2022-08-09T08:50:38.554Z,88
2022-08-09T08:54:40.742Z,152
2022-08-09T08:56:41.962Z,325
2022-08-09T08:58:44.370Z,128
2022-08-09T09:02:46.808Z,86
2022-08-09T09:06:48.113Z,114
2022-08-09T09:08:52.684Z,123
2022-08-09T09:10:50.608Z,135
2022-08-09T09:12:51.397Z,99
2022-08-09T09:14:52.206Z,50
2022-08-09T09:16:53.719Z,147
2022-08-09T09:19:06.627Z,147
2022-08-09T09:20:56.352Z,152
2022-08-09T09:23:01.505Z,144
2022-08-09T09:27:01.218Z,49
2022-08-09T09:29:04.641Z,163
2022-08-09T09:31:03.709Z,156
2022-08-09T09:35:07.753Z,109
2022-08-09T09:39:07.947Z,135
2022-08-09T09:41:09.989Z,163
2022-08-09T09:43:10.409Z,127
2022-08-09T09:45:14.237Z,126
2022-08-09T09:47:13.215Z,122
2022-08-09T09:49:14.239Z,117
2022-08-09T09:51:18.798Z,118
2022-08-09T09:53:16.777Z,162
2022-08-09T09:58:01.994Z,146
2022-08-09T09:59:20.245Z,163
2022-08-09T10:01:30.403Z,57
2022-08-09T10:03:21.967Z,158
2022-08-09T10:05:26.906Z,170
2022-08-09T10:09:25.439Z,180
2022-08-09T10:12:34.517Z,137
2022-08-09T10:14:44.119Z,162
2022-08-09T10:15:50.858Z,137
2022-08-09T10:19:33.130Z,89
2022-08-09T10:21:34.591Z,124
2022-08-09T10:25:54.515Z,130
2022-08-09T10:30:29.824Z,124
2022-08-09T10:32:28.512Z,131
2022-08-09T10:35:44.203Z,21
2022-08-09T10:37:45.389Z,92
2022-08-09T10:39:49.041Z,114
2022-08-09T10:41:48.232Z,156
2022-08-09T10:45:58.645Z,71
2022-08-09T10:48:12.993Z,102
2022-08-09T10:49:54.092Z,114
2022-08-09T10:51:53.707Z,146
2022-08-09T10:55:58.813Z,112
2022-08-09T10:57:59.744Z,204
2022-08-09T11:00:01.514Z,78
2022-08-09T11:03:03.398Z,23
2022-08-09T11:04:03.781Z,102
2022-08-09T11:06:01.833Z,35
2022-08-09T11:08:03.329Z,100
2022-08-09T11:10:04.343Z,342
2022-08-09T11:12:05.837Z,93
2022-08-09T11:18:10.398Z,44
2022-08-09T11:20:20.557Z,127
2022-08-09T11:22:18.984Z,134
2022-08-09T11:24:14.665Z,0
2022-08-09T11:26:16.494Z,118
2022-08-09T11:28:27.545Z,113
2022-08-09T11:30:31.901Z,155
2022-08-09T11:32:20.318Z,140
2022-08-09T11:33:04.005Z,161
2022-08-09T11:35:05.425Z,203
2022-08-09T11:37:07.302Z,169
2022-08-09T11:41:09.196Z,108
2022-08-09T11:43:10.523Z,85
2022-08-09T11:45:11.321Z,117
2022-08-09T11:47:14.287Z,134
2022-08-09T11:49:16.953Z,107
2022-08-09T11:51:21.376Z,167
2022-08-09T11:55:18.293Z,147
2022-08-09T11:57:28.539Z,95
2022-08-09T12:01:37.898Z,353
2022-08-09T12:05:24.784Z,114
2022-08-09T12:07:25.879Z,150
2022-08-09T12:11:27.905Z,199
2022-08-09T12:14:08.783Z,146
2022-08-09T12:15:49.316Z,155
2022-08-09T12:19:33.221Z,70
2022-08-09T12:21:38.472Z,51
2022-08-09T12:23:47.814Z,84
2022-08-09T12:25:38.303Z,81
2022-08-09T12:29:00.516Z,19
2022-08-09T12:31:58.403Z,60
2022-08-09T12:33:51.263Z,178
2022-08-09T12:35:43.088Z,177
2022-08-09T12:37:49.931Z,164
2022-08-09T12:39:45.401Z,193
2022-08-09T12:41:46.436Z,196
2022-08-09T12:45:59.327Z,34
2022-08-09T12:47:51.141Z,151
2022-08-09T12:49:53.033Z,92
2022-08-09T12:53:55.090Z,151
2022-08-09T12:56:13.491Z,153
2022-08-09T13:00:03.635Z,114
2022-08-09T13:04:00.067Z,6
2022-08-09T13:06:14.911Z,40
2022-08-09T13:08:02.857Z,154
2022-08-09T13:10:04.587Z,324
2022-08-09T13:16:07.702Z,4
2022-08-09T13:18:09.707Z,86
2022-08-09T13:20:13.287Z,108
2022-08-09T13:22:34.816Z,107
2022-08-09T13:26:13.183Z,18
2022-08-09T13:30:39.507Z,101
2022-08-09T13:32:21.251Z,118
2022-08-09T13:34:18.273Z,158
2022-08-09T13:36:23.967Z,82
2022-08-09T13:38:33.083Z,130
2022-08-09T13:42:22.719Z,163
2022-08-09T13:44:23.705Z,349
2022-08-09T13:46:44.839Z,101
2022-08-09T13:48:25.746Z,158
2022-08-09T13:50:30.925Z,353
2022-08-09T13:54:30.291Z,57
2022-08-09T13:58:32.936Z,102
2022-08-09T14:00:36.641Z,148
2022-08-09T14:02:36.285Z,170
2022-08-09T14:04:35.991Z,152
2022-08-09T14:06:39.481Z,185
2022-08-09T14:08:38.638Z,138
2022-08-09T14:10:46.378Z,134
2022-08-09T14:12:41.255Z,114
2022-08-09T14:14:44.018Z,106
2022-08-09T14:16:43.647Z,151
2022-08-09T14:18:45.566Z,154
2022-08-09T14:20:45.836Z,5
2022-08-09T14:24:53.570Z,80
2022-08-09T14:26:51.400Z,215
2022-08-09T14:28:51.922Z,103
2022-08-09T14:30:52.898Z,129
2022-08-09T14:34:55.467Z,149
2022-08-09T14:36:56.164Z,114
2022-08-09T14:41:01.725Z,113
2022-08-09T14:45:01.238Z,117
2022-08-09T14:47:15.673Z,99
2022-08-09T14:51:05.223Z,353
2022-08-09T14:55:08.140Z,68
2022-08-09T14:57:08.775Z,108
2022-08-09T15:01:11.447Z,16
2022-08-09T15:03:13.062Z,110
2022-08-09T15:05:15.215Z,139
2022-08-09T15:07:15.887Z,120
2022-08-09T15:13:19.131Z,28
2022-08-09T15:15:20.040Z,30
2022-08-09T15:17:21.413Z,80
2022-08-09T15:21:54.564Z,109
2022-08-09T15:25:33.601Z,120
2022-08-09T15:30:48.034Z,115
2022-08-09T15:34:04.277Z,104
2022-08-09T15:35:40.951Z,92
2022-08-09T15:37:37.603Z,43
2022-08-09T15:39:53.314Z,164
2022-08-09T15:41:36.373Z,114
2022-08-09T15:43:37.736Z,155
2022-08-09T15:45:51.503Z,155
2022-08-09T15:47:45.713Z,100
2022-08-09T15:49:41.432Z,91
2022-08-09T15:52:02.559Z,93
2022-08-09T15:54:02.887Z,108
2022-08-09T15:55:58.839Z,90
2022-08-09T15:57:51.191Z,94
2022-08-09T15:59:51.527Z,10
2022-08-09T16:01:49.709Z,37
2022-08-09T16:05:55.305Z,19
2022-08-09T16:07:54.734Z,334
2022-08-09T16:09:58.039Z,329
2022-08-09T16:11:58.689Z,107
2022-08-09T16:16:04.287Z,65
2022-08-09T16:18:01.663Z,90
2022-08-09T16:20:04.381Z,160
2022-08-09T16:22:04.372Z,124
2022-08-09T16:26:06.257Z,13
2022-08-09T16:28:07.065Z,111
2022-08-09T16:32:10.733Z,144
2022-08-09T16:36:15.933Z,154
2022-08-09T16:38:12.719Z,106
2022-08-09T16:42:15.635Z,152
2022-08-09T16:44:16.366Z,117
2022-08-09T16:46:17.240Z,81
2022-08-09T16:48:37.536Z,81
2022-08-09T16:50:30.682Z,65
2022-08-09T16:52:21.901Z,101
2022-08-09T16:56:25.178Z,23
2022-08-09T16:58:25.239Z,117
2022-08-09T17:00:26.279Z,120
2022-08-09T17:02:27.877Z,96
2022-08-09T17:04:29.467Z,120
2022-08-09T17:06:31.459Z,133
2022-08-09T17:10:33.010Z,127
2022-08-09T17:14:35.314Z,116
2022-08-09T17:16:38.171Z,161
2022-08-09T17:18:37.768Z,127
2022-08-09T17:20:44.383Z,146
2022-08-09T17:22:50.447Z,110
2022-08-09T17:24:41.448Z,39
2022-08-09T17:26:42.597Z,28
2022-08-09T17:28:43.374Z,96
2022-08-09T17:30:47.719Z,123
2022-08-09T17:36:53.208Z,112
2022-08-09T17:38:52.847Z,44
2022-08-09T17:40:51.192Z,30
2022-08-09T17:44:53.529Z,70
2022-08-09T17:46:55.473Z,69
2022-08-09T17:48:56.207Z,108
2022-08-09T17:52:58.910Z,110
2022-08-09T17:55:00.456Z,110
2022-08-09T17:57:01.783Z,110
2022-08-09T17:59:09.719Z,110
2022-08-09T18:03:06.438Z,110
2022-08-09T18:07:09.175Z,108
2022-08-09T18:09:10.462Z,108
2022-08-09T18:13:40.502Z,30
2022-08-09T18:15:14.067Z,360
2022-08-09T18:18:01.850Z,30
2022-08-09T18:20:53.442Z,30
2022-08-09T18:24:09.246Z,30
2022-08-09T18:26:04.924Z,30
2022-08-09T18:30:36.738Z,360
2022-08-09T18:34:09.900Z,30
2022-08-09T18:36:14.051Z,360
2022-08-09T18:40:13.999Z,360
2022-08-09T18:44:17.060Z,360
2022-08-09T18:46:45.432Z,360
2022-08-09T18:48:19.135Z,360
2022-08-09T18:50:20.185Z,360
2022-08-09T18:52:24.759Z,360
2022-08-09T18:54:28.329Z,360
2022-08-09T18:56:33.211Z,360
2022-08-09T18:58:31.942Z,360
2022-08-09T19:00:26.926Z,360
2022-08-09T19:02:32.860Z,360
2022-08-09T19:04:34.890Z,360
2022-08-09T19:06:30.483Z,360
2022-08-09T19:08:32.025Z,360
2022-08-09T19:10:37.513Z,360
2022-08-09T19:12:36.651Z,360
2022-08-09T19:14:36.277Z,360
2022-08-09T19:18:42.376Z,360
2022-08-09T19:20:40.744Z,360
2022-08-09T19:22:42.080Z,360
2022-08-09T19:25:07.297Z,360
2022-08-09T19:26:48.914Z,360
2022-08-09T19:28:48.702Z,360
2022-08-09T19:30:46.812Z,360
2022-08-09T19:32:49.247Z,360
2022-08-09T19:34:49.738Z,360
2022-08-09T19:36:51.089Z,360
2022-08-09T19:38:52.026Z,360
2022-08-09T19:40:53.716Z,360
2022-08-09T19:42:54.913Z,360
2022-08-09T19:44:56.667Z,360
2022-08-09T19:46:58.214Z,360
2022-08-09T19:49:01.310Z,360
2022-08-09T19:55:04.140Z,360
2022-08-09T19:57:05.249Z,360
2022-08-09T19:59:18.677Z,360
2022-08-09T20:01:08.166Z,360
2022-08-09T20:05:11.669Z,360
2022-08-09T20:07:11.096Z,360
2022-08-09T20:09:20.592Z,360
2022-08-09T20:13:18.837Z,360
2022-08-09T20:16:32.448Z,30
2022-08-09T20:17:17.602Z,30
2022-08-09T20:19:43.544Z,30
2022-08-09T20:21:19.754Z,30
2022-08-09T20:23:22.972Z,30
2022-08-09T20:25:23.044Z,30
2022-08-09T20:27:23.722Z,30
2022-08-09T20:31:26.794Z,30
2022-08-09T20:33:28.384Z,30
2022-08-09T20:35:30.230Z,30
2022-08-09T20:37:37.048Z,30
2022-08-09T20:43:34.693Z,30
2022-08-09T20:45:58.781Z,30
2022-08-09T20:47:45.897Z,30
2022-08-09T20:49:38.350Z,30
2022-08-09T20:53:40.587Z,30
2022-08-09T20:55:47.106Z,30
2022-08-09T20:59:50.419Z,30
2022-08-09T21:04:08.479Z,30
2022-08-09T21:05:57.525Z,30
2022-08-09T21:07:49.362Z,30
2022-08-09T21:09:55.936Z,30
2022-08-09T21:13:59.409Z,45
2022-08-09T21:15:55.235Z,45
2022-08-09T21:20:04.917Z,45
2022-08-09T21:26:00.958Z,45
2022-08-09T21:28:02.126Z,45
2022-08-09T21:30:03.386Z,45
2022-08-09T21:34:06.136Z,45
2022-08-09T21:36:07.412Z,45
2022-08-09T21:38:09.237Z,45
2022-08-09T21:42:11.695Z,45
2022-08-09T21:44:15.343Z,45
2022-08-09T21:46:13.877Z,45
2022-08-09T21:48:15.527Z,45
2022-08-09T21:50:17.446Z,45
2022-08-09T21:52:18.465Z,45
2022-08-09T21:54:19.377Z,45
2022-08-09T21:56:34.134Z,45
2022-08-09T21:58:29.076Z,45
2022-08-09T22:02:29.652Z,45
2022-08-09T22:04:37.619Z,45
2022-08-09T22:06:27.537Z,45
2022-08-09T22:08:29.009Z,45
2022-08-09T22:10:30.690Z,45
2022-08-09T22:12:32.464Z,45
2022-08-09T22:18:37.205Z,45
2022-08-09T22:20:38.390Z,45
2022-08-09T22:22:39.932Z,64
2022-08-09T22:24:53.501Z,64
2022-08-09T22:26:42.584Z,64
2022-08-09T22:28:47.297Z,64
2022-08-09T22:30:48.494Z,64
2022-08-09T22:32:47.539Z,64
2022-08-09T22:36:50.384Z,64
2022-08-09T22:38:51.374Z,64
2022-08-09T22:40:57.730Z,64
2022-08-09T22:42:53.748Z,64
2022-08-09T22:44:59.986Z,64
2022-08-09T22:48:07.123Z,64
2022-08-09T22:49:00.026Z,64
2022-08-09T22:50:58.169Z,64
2022-08-09T22:52:59.784Z,64
2022-08-09T22:55:01.435Z,64
2022-08-09T22:57:02.933Z,64
2022-08-09T22:59:05.378Z,64
2022-08-09T23:01:06.164Z,64
2022-08-09T23:05:09.421Z,64
2022-08-09T23:07:11.082Z,64
2022-08-09T23:09:11.521Z,64
2022-08-09T23:11:12.681Z,64
2022-08-09T23:13:13.827Z,64
2022-08-09T23:15:14.921Z,64
2022-08-09T23:17:16.465Z,64
2022-08-09T23:19:17.897Z,64
2022-08-09T23:21:23.807Z,64
2022-08-09T23:23:20.919Z,64
2022-08-09T23:27:23.349Z,64
2022-08-09T23:29:24.914Z,64
2022-08-09T23:31:25.997Z,64
2022-08-09T23:33:27.390Z,64
2022-08-09T23:37:30.540Z,64
2022-08-09T23:39:31.995Z,64
2022-08-09T23:41:33.192Z,64
2022-08-09T23:43:34.453Z,64
2022-08-09T23:49:37.997Z,64
2022-08-09T23:51:39.807Z,64
2022-08-09T23:53:41.118Z,64
2022-08-09T23:55:43.146Z,64
2022-08-09T23:57:45.012Z,64
2022-08-09T23:59:44.819Z,64
